Terminal Aerodrome Forecast
Issued by NWS Jackson, MS

Home | Current Version | Previous Version | Text Only | Print | Product List | Glossary On
Versions: 1 2 3 4 5 6 7 8 9 10 11 12 13 14 15
601
FTUS44 KJAN 222336
TAFHBG
TAF
KHBG 222336Z 2300/2324 30004KT P6SM -SHRA BKN007 OVC015
     FM230100 30004KT P6SM -SHRA SCT010 OVC015
     FM230300 30004KT P6SM SCT025 BKN120
     FM231200 32004KT P6SM BKN008
     FM231400 31006KT P6SM BKN015
     FM231600 32011G17KT P6SM SKC=

USA.gov is the U.S. government's official web portal to all federal, state and local government web resources and services.